Time;durP1;ratioP1;P1;durP2;ratioP2;P2;SDS_P1;SDS_P2;PMS_P1;PMS_P2;Temp;Humidity;BMP_temperature;BMP_pressure;BME280_temperature;BME280_humidity;BME280_pressure;Samples;Min_cycle;Max_cycle;Signal;HPM_P1;HPM_P2
2022/04/13 00:01:58;;;;;;;17.60;9.68;;;;;;;;;;4437649;32;20475;-71
2022/04/13 00:04:23;;;;;;;;;;;;;;;;;;4452454;32;20455;-71
2022/04/13 00:06:48;;;;;;;16.77;10.02;;;;;;;;;;4453644;32;19977;-72
2022/04/13 00:09:13;;;;;;;;;;;;;;;;;;4452104;32;20457;-72
2022/04/13 00:11:39;;;;;;;16.37;9.05;;;;;;;;;;4437871;32;19932;-71
2022/04/13 00:14:04;;;;;;;;;;;;;;;;;;4437828;32;20069;-72
2022/04/13 00:16:29;;;;;;;20.75;7.85;;;;;;;;;;4453304;32;19943;-71
2022/04/13 00:18:54;;;;;;;;;;;;;;;;;;4437873;32;20148;-72
2022/04/13 00:21:19;;;;;;;14.68;7.97;;;;;;;;;;4453317;32;20014;-72
2022/04/13 00:23:45;;;;;;;;;;;;;;;;;;4438232;32;20113;-70
2022/04/13 00:26:10;;;;;;;12.57;8.07;;;;;;;;;;4450570;32;19947;-71
2022/04/13 00:28:36;;;;;;;;;;;;;;;;;;4451404;32;20022;-71
2022/04/13 00:31:01;;;;;;;14.63;7.72;;;;;;;;;;4451460;32;19959;-71
2022/04/13 00:33:26;;;;;;;;;;;;;;;;;;4452217;32;20316;-71
2022/04/13 00:35:53;;;;;;;15.38;7.57;;;;;;;;;;4450947;32;20297;-71
2022/04/13 00:38:19;;;;;;;17.08;7.95;;;;;;;;;;4465498;26;20180;-72
2022/04/13 00:40:44;;;;;;;11.77;6.15;;;;;;;;;;4436323;32;20339;-73
2022/04/13 00:43:10;;;;;;;14.95;6.97;;;;;;;;;;4421762;32;20018;-72
2022/04/13 00:45:35;;;;;;;;;;;;;;;;;;4436203;32;20121;-73
2022/04/13 00:48:03;;;;;;;14.18;7.28;;;;;;;;;;4435843;32;19941;-72
2022/04/13 00:50:28;;;;;;;13.32;7.20;;;;;;;;;;4436235;32;20022;-72
2022/04/13 00:52:54;;;;;;;13.50;7.15;;;;;;;;;;4436424;32;20052;-71
2022/04/13 00:55:19;;;;;;;;;;;;;;;;;;4425818;32;20048;-73
2022/04/13 00:57:45;;;;;;;15.95;6.72;;;;;;;;;;4405976;32;19941;-73
2022/04/13 01:00:11;;;;;;;16.10;7.57;;;;;;;;;;4405440;32;20373;-72
2022/04/13 01:02:36;;;;;;;12.57;6.15;;;;;;;;;;4405108;32;20026;-72
2022/04/13 01:05:02;;;;;;;11.32;6.90;;;;;;;;;;4405411;32;20015;-72
2022/04/13 01:07:28;;;;;;;15.20;7.18;;;;;;;;;;4407027;32;20097;-73
2022/04/13 01:09:54;;;;;;;13.68;6.05;;;;;;;;;;4416046;32;20048;-73
2022/04/13 01:12:19;;;;;;;20.08;7.82;;;;;;;;;;4435902;32;20018;-73
2022/04/13 01:14:44;;;;;;;;;;;;;;;;;;4437282;32;20399;-73
2022/04/13 01:17:09;;;;;;;13.68;6.97;;;;;;;;;;4435836;32;19933;-73
2022/04/13 01:19:34;;;;;;;14.37;7.13;;;;;;;;;;4436013;32;20143;-72
2022/04/13 01:22:03;;;;;;;;;;;;;;;;;;4421736;32;20121;-73
2022/04/13 01:24:29;;;;;;;13.18;6.35;;;;;;;;;;4433621;32;20280;-71
2022/04/13 01:26:54;;;;;;;14.63;7.20;;;;;;;;;;4397818;32;20034;-72
2022/04/13 01:29:20;;;;;;;14.60;6.90;;;;;;;;;;4406225;32;20025;-73
2022/04/13 01:31:45;;;;;;;;;;;;;;;;;;4420331;32;20045;-72
2022/04/13 01:34:10;;;;;;;13.62;6.53;;;;;;;;;;4408011;32;19937;-72
2022/04/13 01:36:35;;;;;;;;;;;;;;;;;;4420264;32;20550;-72
2022/04/13 01:39:01;;;;;;;12.05;7.20;;;;;;;;;;4419909;32;19944;-72
2022/04/13 01:41:26;;;;;;;14.48;7.10;;;;;;;;;;4421703;32;20415;-72
2022/04/13 01:43:51;;;;;;;;;;;;;;;;;;4419952;32;20018;-73
2022/04/13 01:46:16;;;;;;;16.55;7.40;;;;;;;;;;4420447;32;19983;-73
2022/04/13 01:48:41;;;;;;;;;;;;;;;;;;4420593;32;20094;-73
2022/04/13 01:51:06;;;;;;;19.30;7.70;;;;;;;;;;4406119;32;20302;-71
2022/04/13 01:53:32;;;;;;;14.45;7.07;;;;;;;;;;4421861;32;20018;-73
2022/04/13 01:55:57;;;;;;;;;;;;;;;;;;4407720;32;20026;-72
2022/04/13 01:58:23;;;;;;;13.62;6.65;;;;;;;;;;4390681;32;19944;-72
2022/04/13 02:00:53;;;;;;;15.00;6.68;;;;;;;;;;4406220;32;20102;-72
2022/04/13 02:03:19;;;;;;;14.32;7.35;;;;;;;;;;4392047;32;20102;-73
2022/04/13 02:05:46;;;;;;;14.27;7.22;;;;;;;;;;4406101;32;20396;-73
2022/04/13 02:08:11;;;;;;;13.05;7.35;;;;;;;;;;4420423;32;20093;-72
2022/04/13 02:10:36;;;;;;;16.70;7.60;;;;;;;;;;4404832;32;20030;-72
2022/04/13 02:13:01;;;;;;;16.90;8.07;;;;;;;;;;4404585;32;20396;-73
2022/04/13 02:15:26;;;;;;;;;;;;;;;;;;4391979;32;20049;-73
2022/04/13 02:17:51;;;;;;;16.25;7.50;;;;;;;;;;4404625;32;19933;-71
2022/04/13 02:20:17;;;;;;;15.40;7.12;;;;;;;;;;4405025;32;20041;-72
2022/04/13 02:22:42;;;;;;;;;;;;;;;;;;4407209;32;20435;-73
2022/04/13 02:25:07;;;;;;;14.15;6.60;;;;;;;;;;4385963;32;20335;-73
2022/04/13 02:27:33;;;;;;;16.50;7.20;;;;;;;;;;4394222;32;20049;-73
2022/04/13 02:29:58;;;;;;;;;;;;;;;;;;4392569;32;20050;-72
2022/04/13 02:32:23;;;;;;;14.95;7.07;;;;;;;;;;4391632;32;20371;-72
2022/04/13 02:34:48;;;;;;;15.82;6.80;;;;;;;;;;4395370;32;20045;-72
2022/04/13 02:37:16;;;;;;;13.95;7.30;;;;;;;;;;4422975;32;20027;-72
2022/04/13 02:39:42;;;;;;;14.35;7.15;;;;;;;;;;4408654;32;20022;-72
2022/04/13 02:42:07;;;;;;;19.40;7.93;;;;;;;;;;4422767;32;20048;-73
2022/04/13 02:44:32;;;;;;;15.65;7.62;;;;;;;;;;4424390;32;20053;-72
2022/04/13 02:46:58;;;;;;;17.43;7.20;;;;;;;;;;4422889;32;20049;-72
2022/04/13 02:49:23;;;;;;;;;;;;;;;;;;4422527;32;20499;-73
2022/04/13 02:51:48;;;;;;;14.25;7.10;;;;;;;;;;4421067;32;20009;-73
2022/04/13 02:54:13;;;;;;;;;;;;;;;;;;4418923;32;20022;-73
2022/04/13 02:56:38;;;;;;;18.05;8.27;;;;;;;;;;4395045;32;20041;-73
2022/04/13 02:59:03;;;;;;;;;;;;;;;;;;4407961;32;20192;-72
2022/04/13 03:01:29;;;;;;;18.58;9.40;;;;;;;;;;4408038;32;19934;-72
2022/04/13 03:03:54;;;;;;;16.02;8.80;;;;;;;;;;4406606;32;20037;-72
2022/04/13 03:06:19;;;;;;;;;;;;;;;;;;4407338;32;20126;-71
2022/04/13 03:08:45;;;;;;;18.20;10.25;;;;;;;;;;4406976;32;19941;-72
2022/04/13 03:11:10;;;;;;;16.42;10.45;;;;;;;;;;4407468;32;20355;-72
2022/04/13 03:13:36;;;;;;;;;;;;;;;;;;4407559;32;20015;-73
2022/04/13 03:16:01;;;;;;;21.42;10.05;;;;;;;;;;4414517;32;19941;-71
2022/04/13 03:18:26;;;;;;;;;;;;;;;;;;4421598;32;20060;-72
2022/04/13 03:20:51;;;;;;;25.15;12.60;;;;;;;;;;4420229;32;19985;-72
2022/04/13 03:23:16;;;;;;;;;;;;;;;;;;4421165;32;20109;-72
2022/04/13 03:25:42;;;;;;;14.98;10.25;;;;;;;;;;4410736;32;19975;-72
2022/04/13 03:28:07;;;;;;;;;;;;;;;;;;4408351;32;20437;-72
2022/04/13 03:30:32;;;;;;;20.40;11.90;;;;;;;;;;4408626;32;20283;-72
2022/04/13 03:32:57;;;;;;;;;;;;;;;;;;4393084;32;20065;-73
2022/04/13 03:35:22;;;;;;;18.83;12.27;;;;;;;;;;4406074;32;19960;-72
2022/04/13 03:37:47;;;;;;;;;;;;;;;;;;4408053;32;20019;-73
2022/04/13 03:40:12;;;;;;;19.08;13.55;;;;;;;;;;4406177;32;19942;-71
2022/04/13 03:42:39;;;;;;;24.37;14.05;;;;;;;;;;4408160;32;20077;-72
2022/04/13 03:45:08;;;;;;;23.35;13.20;;;;;;;;;;4420024;32;20075;-71
2022/04/13 03:47:33;;;;;;;21.15;13.57;;;;;;;;;;4421899;32;20074;-72
2022/04/13 03:49:58;;;;;;;23.38;13.93;;;;;;;;;;4421782;32;20038;-72
2022/04/13 03:52:24;;;;;;;26.23;15.55;;;;;;;;;;4422438;32;20411;-71
2022/04/13 03:54:49;;;;;;;;;;;;;;;;;;4415654;32;20403;-72
2022/04/13 03:57:14;;;;;;;25.37;14.27;;;;;;;;;;4406427;32;19988;-72
2022/04/13 03:59:39;;;;;;;25.50;15.10;;;;;;;;;;4406607;32;20053;-72
2022/04/13 04:02:05;;;;;;;;;;;;;;;;;;4408725;32;20164;-73
2022/04/13 04:04:30;;;;;;;24.25;13.13;;;;;;;;;;4393633;32;19948;-73
2022/04/13 04:06:55;;;;;;;;;;;;;;;;;;4407353;32;20139;-72
2022/04/13 04:09:20;;;;;;;23.95;13.70;;;;;;;;;;4408393;32;19941;-73
2022/04/13 04:11:45;;;;;;;19.98;12.68;;;;;;;;;;4406769;32;20084;-72
2022/04/13 04:14:10;;;;;;;;;;;;;;;;;;4407261;32;20355;-72
2022/04/13 04:16:35;;;;;;;20.45;13.13;;;;;;;;;;4414165;32;19967;-73
2022/04/13 04:19:01;;;;;;;22.55;12.98;;;;;;;;;;4422010;32;20021;-72
2022/04/13 04:21:26;;;;;;;18.73;13.03;;;;;;;;;;4421815;32;20312;-74
2022/04/13 04:23:51;;;;;;;;;;;;;;;;;;4422469;32;20125;-73
2022/04/13 04:26:16;;;;;;;25.67;13.35;;;;;;;;;;4406831;32;19933;-72
2022/04/13 04:28:42;;;;;;;;;;;;;;;;;;4400292;32;20528;-72
2022/04/13 04:31:07;;;;;;;23.85;12.00;;;;;;;;;;4378076;32;19965;-73
2022/04/13 04:33:33;;;;;;;21.30;11.90;;;;;;;;;;4391436;32;20379;-70
2022/04/13 04:35:58;;;;;;;24.00;14.68;;;;;;;;;;4390485;32;20110;-74
2022/04/13 04:38:23;;;;;;;;;;;;;;;;;;4389560;32;20416;-72
2022/04/13 04:40:49;;;;;;;18.05;12.15;;;;;;;;;;4391645;32;20311;-71
2022/04/13 04:43:14;;;;;;;;;;;;;;;;;;4391603;32;20084;-73
2022/04/13 04:45:39;;;;;;;23.08;12.35;;;;;;;;;;4390275;32;19956;-74
2022/04/13 04:48:04;;;;;;;;;;;;;;;;;;4376816;32;20100;-72
2022/04/13 04:50:30;;;;;;;22.13;12.23;;;;;;;;;;4390546;32;19946;-72
2022/04/13 04:52:55;;;;;;;;;;;;;;;;;;4391239;32;20434;-72
2022/04/13 04:55:20;;;;;;;19.30;12.13;;;;;;;;;;4400727;32;19950;-71
2022/04/13 04:57:45;;;;;;;;;;;;;;;;;;4405754;32;20106;-72
2022/04/13 05:00:12;;;;;;;19.45;11.10;;;;;;;;;;4406513;32;19945;-72
2022/04/13 05:02:38;;;;;;;16.62;10.80;;;;;;;;;;4405394;32;20104;-76
2022/04/13 05:05:04;;;;;;;22.13;12.30;;;;;;;;;;4407396;32;20113;-75
2022/04/13 05:07:29;;;;;;;18.40;11.45;;;;;;;;;;4406885;32;20033;-73
2022/04/13 05:09:55;;;;;;;25.67;12.90;;;;;;;;;;4421407;32;20040;-73
2022/04/13 05:12:20;;;;;;;;;;;;;;;;;;4422054;32;20385;-72
2022/04/13 05:14:45;;;;;;;19.05;12.30;;;;;;;;;;4420816;32;19979;-72
2022/04/13 05:17:10;;;;;;;;;;;;;;;;;;4422375;32;20140;-72
2022/04/13 05:19:35;;;;;;;24.52;11.68;;;;;;;;;;4407177;32;20294;-76
2022/04/13 05:22:00;;;;;;;22.42;12.88;;;;;;;;;;4420326;32;20247;-74
2022/04/13 05:24:25;;;;;;;;;;;;;;;;;;4410295;32;20526;-72
2022/04/13 05:26:50;;;;;;;24.60;12.57;;;;;;;;;;4390280;32;19934;-73
2022/04/13 05:29:16;;;;;;;;;;;;;;;;;;4390107;32;20055;-79
2022/04/13 05:31:41;;;;;;;27.23;13.27;;;;;;;;;;4397371;32;20289;-72
2022/04/13 05:34:06;;;;;;;22.13;12.25;;;;;;;;;;4405642;32;20053;-74
2022/04/13 05:36:31;;;;;;;;;;;;;;;;;;4420176;32;20037;-72
2022/04/13 05:38:56;;;;;;;21.10;11.55;;;;;;;;;;4420080;32;20045;-72
2022/04/13 05:41:21;;;;;;;22.40;12.23;;;;;;;;;;4420624;32;20087;-71
2022/04/13 05:43:47;;;;;;;;;;;;;;;;;;4419635;32;20189;-74
2022/04/13 05:46:12;;;;;;;22.62;12.70;;;;;;;;;;4419751;32;19941;-73
2022/04/13 05:48:37;;;;;;;;;;;;;;;;;;4403831;32;20027;-75
2022/04/13 05:51:02;;;;;;;20.40;13.02;;;;;;;;;;4404230;32;19966;-73
2022/04/13 05:53:27;;;;;;;;;;;;;;;;;;4404349;32;20040;-75
2022/04/13 05:55:55;;;;;;;19.87;12.23;;;;;;;;;;4404138;32;19990;-73
2022/04/13 05:58:22;;;;;;;16.77;11.10;;;;;;;;;;4408319;32;20026;-77
2022/04/13 06:00:47;;;;;;;20.92;12.30;;;;;;;;;;4414520;32;20026;-75
2022/04/13 06:03:12;;;;;;;23.67;11.68;;;;;;;;;;4408839;32;20026;-74
2022/04/13 06:05:39;;;;;;;;;;;;;;;;;;4423284;32;20324;-75
2022/04/13 06:08:04;;;;;;;19.20;11.70;;;;;;;;;;4424761;32;19933;-76
2022/04/13 06:10:29;;;;;;;20.25;10.85;;;;;;;;;;4422477;32;20213;-73
2022/04/13 06:12:55;;;;;;;;;;;;;;;;;;4415310;32;20058;-77
2022/04/13 06:15:20;;;;;;;25.88;11.57;;;;;;;;;;4392242;32;19952;-76
2022/04/13 06:17:45;;;;;;;;;;;;;;;;;;4408045;32;20153;-76
2022/04/13 06:20:10;;;;;;;18.73;11.27;;;;;;;;;;4407762;32;19933;-74
2022/04/13 06:22:37;;;;;;;16.73;11.32;;;;;;;;;;4414933;32;20557;-76
2022/04/13 06:25:02;;;;;;;20.62;10.98;;;;;;;;;;4422210;32;20416;-74
2022/04/13 06:27:27;;;;;;;16.55;10.40;;;;;;;;;;4408655;32;20090;-74
2022/04/13 06:29:53;;;;;;;19.58;10.95;;;;;;;;;;4393555;32;20030;-74
2022/04/13 06:32:18;;;;;;;20.90;10.75;;;;;;;;;;4395841;32;20080;-76
2022/04/13 06:34:43;;;;;;;;;;;;;;;;;;4405629;32;20023;-74
2022/04/13 06:37:09;;;;;;;19.85;10.48;;;;;;;;;;4406301;32;19945;-74
2022/04/13 06:39:34;;;;;;;18.55;11.18;;;;;;;;;;4406611;32;20117;-76
2022/04/13 06:41:59;;;;;;;17.55;9.60;;;;;;;;;;4407604;32;20018;-73
2022/04/13 06:44:24;;;;;;;17.87;9.05;;;;;;;;;;4407236;32;20030;-74
2022/04/13 06:46:49;;;;;;;;;;;;;;;;;;4407715;32;20015;-77
2022/04/13 06:49:15;;;;;;;13.25;7.97;;;;;;;;;;4408114;32;19933;-73
2022/04/13 06:51:40;;;;;;;25.58;9.05;;;;;;;;;;4407439;32;20052;-75
2022/04/13 06:54:05;;;;;;;18.90;7.80;;;;;;;;;;4407098;32;20515;-73
2022/04/13 06:56:32;;;;;;;;;;;;;;;;;;4393464;32;20080;-76
2022/04/13 06:58:57;;;;;;;14.95;7.75;;;;;;;;;;4407586;32;19958;-77
2022/04/13 07:01:22;;;;;;;;;;;;;;;;;;4408060;32;20389;-74
2022/04/13 07:03:48;;;;;;;19.65;7.70;;;;;;;;;;4408180;32;19945;-76
2022/04/13 07:06:13;;;;;;;22.40;8.82;;;;;;;;;;4407087;32;20446;-73
2022/04/13 07:08:38;;;;;;;12.52;7.45;;;;;;;;;;4406851;32;20018;-73
2022/04/13 07:11:03;;;;;;;17.30;7.10;;;;;;;;;;4393068;32;20018;-74
2022/04/13 07:13:28;;;;;;;;;;;;;;;;;;4407283;32;20483;-74
2022/04/13 07:15:53;;;;;;;13.05;6.93;;;;;;;;;;4392781;32;19941;-77
2022/04/13 07:18:19;;;;;;;20.33;7.25;;;;;;;;;;4407010;32;20111;-76
2022/04/13 07:20:44;;;;;;;;;;;;;;;;;;4407700;32;20110;-74
2022/04/13 07:23:09;;;;;;;14.80;6.10;;;;;;;;;;4406701;32;19945;-79
2022/04/13 07:25:35;;;;;;;17.62;6.80;;;;;;;;;;4407978;32;20434;-76
2022/04/13 07:28:00;;;;;;;12.50;6.30;;;;;;;;;;4393439;32;20071;-76
2022/04/13 07:30:25;;;;;;;9.98;6.12;;;;;;;;;;4407535;32;20080;-74
2022/04/13 07:32:50;;;;;;;;;;;;;;;;;;4392122;32;20038;-75
2022/04/13 07:35:15;;;;;;;17.17;6.95;;;;;;;;;;4391864;32;20023;-78
2022/04/13 07:37:43;;;;;;;18.05;6.37;;;;;;;;;;4392186;32;20023;-79
2022/04/13 07:40:11;;;;;;;16.73;6.70;;;;;;;;;;4390991;32;20113;-76
2022/04/13 07:42:36;;;;;;;19.62;6.93;;;;;;;;;;4377342;32;20046;-75
2022/04/13 07:45:02;;;;;;;21.50;7.45;;;;;;;;;;4391250;32;20098;-77
2022/04/13 07:47:27;;;;;;;22.08;6.15;;;;;;;;;;4391545;32;20023;-76
2022/04/13 07:49:53;;;;;;;17.27;7.07;;;;;;;;;;4400492;32;20053;-75
2022/04/13 07:52:18;;;;;;;;;;;;;;;;;;4411106;32;20336;-75
2022/04/13 07:54:44;;;;;;;12.98;6.00;;;;;;;;;;4391535;32;19937;-75
2022/04/13 07:57:10;;;;;;;18.80;6.95;;;;;;;;;;4401176;32;20022;-76
2022/04/13 07:59:35;;;;;;;18.65;6.62;;;;;;;;;;4423505;32;20022;-75
2022/04/13 08:02:02;;;;;;;;;;;;;;;;;;4424978;32;20018;-75
2022/04/13 08:04:27;;;;;;;15.70;6.10;;;;;;;;;;4426697;32;20298;-74
2022/04/13 08:06:52;;;;;;;12.43;5.68;;;;;;;;;;4425643;32;20025;-75
2022/04/13 08:09:17;;;;;;;;;;;;;;;;;;4416411;32;20363;-75
2022/04/13 08:11:44;;;;;;;14.13;5.70;;;;;;;;;;4410226;32;19952;-75
2022/04/13 08:14:09;;;;;;;17.17;6.20;;;;;;;;;;4410904;32;20023;-77
2022/04/13 08:16:34;;;;;;;13.43;6.62;;;;;;;;;;4410690;32;20434;-76
2022/04/13 08:19:00;;;;;;;10.32;5.55;;;;;;;;;;4393584;32;20187;-77
2022/04/13 08:21:25;;;;;;;16.77;6.80;;;;;;;;;;4407604;32;20019;-76
2022/04/13 08:23:50;;;;;;;22.13;7.00;;;;;;;;;;4392705;32;20398;-78
2022/04/13 08:26:15;;;;;;;;;;;;;;;;;;4394668;32;20067;-78
2022/04/13 08:28:40;;;;;;;19.23;8.57;;;;;;;;;;4392370;32;19941;-76
2022/04/13 08:31:07;;;;;;;22.33;8.48;;;;;;;;;;4391937;32;20589;-77
2022/04/13 08:33:33;;;;;;;13.93;6.20;;;;;;;;;;4390931;32;20027;-75
2022/04/13 08:35:58;;;;;;;18.87;6.60;;;;;;;;;;4390723;32;20049;-76
2022/04/13 08:38:23;;;;;;;14.07;5.73;;;;;;;;;;4390939;32;20042;-80
2022/04/13 08:40:58;;;;;;;20.75;7.35;;;;;;;;;;4390894;32;20168;-75
2022/04/13 08:43:43;;;;;;;14.75;6.37;;;;;;;;;;4390996;32;20047;-76
2022/04/13 08:46:14;;;;;;;16.85;6.90;;;;;;;;;;4391959;32;20023;-76
2022/04/13 08:48:39;;;;;;;15.68;6.87;;;;;;;;;;4404714;32;20057;-76
2022/04/13 08:51:06;;;;;;;17.27;6.50;;;;;;;;;;4406370;32;20070;-75
2022/04/13 08:53:31;;;;;;;13.75;6.20;;;;;;;;;;4405371;32;20061;-76
2022/04/13 08:55:58;;;;;;;13.73;5.70;;;;;;;;;;4405500;32;20431;-78
2022/04/13 08:58:43;;;;;;;16.90;6.62;;;;;;;;;;4405147;32;20366;-78
2022/04/13 09:01:16;;;;;;;18.95;7.87;;;;;;;;;;4405225;32;20120;-76
2022/04/13 09:03:41;;;;;;;16.77;7.85;;;;;;;;;;4405997;32;20343;-74
2022/04/13 09:06:08;;;;;;;20.17;8.27;;;;;;;;;;4406576;32;20096;-75
2022/04/13 09:08:39;;;;;;;16.55;7.18;;;;;;;;;;4405046;32;20118;-76
2022/04/13 09:11:05;;;;;;;14.77;6.37;;;;;;;;;;4405238;32;20022;-74
2022/04/13 09:13:32;;;;;;;16.95;7.05;;;;;;;;;;4415260;32;20052;-77
2022/04/13 09:15:58;;;;;;;14.10;6.90;;;;;;;;;;4416933;32;20082;-78
2022/04/13 09:18:24;;;;;;;14.68;7.80;;;;;;;;;;4393834;32;20035;-76
2022/04/13 09:20:50;;;;;;;17.02;7.80;;;;;;;;;;4415928;32;20086;-77
2022/04/13 09:23:15;;;;;;;19.40;8.45;;;;;;;;;;4401772;32;20039;-77
2022/04/13 09:25:40;;;;;;;14.55;7.07;;;;;;;;;;4421637;32;20079;-76
2022/04/13 09:28:05;;;;;;;;;;;;;;;;;;4421597;32;20050;-75
2022/04/13 09:30:32;;;;;;;14.52;6.75;;;;;;;;;;4416488;32;20269;-77
2022/04/13 09:32:58;;;;;;;14.93;6.25;;;;;;;;;;4415828;32;20049;-76
2022/04/13 09:35:23;;;;;;;21.48;6.72;;;;;;;;;;4405318;32;20044;-80
2022/04/13 09:37:48;;;;;;;16.73;6.82;;;;;;;;;;4412129;32;20014;-78
2022/04/13 09:40:27;;;;;;;21.23;6.95;;;;;;;;;;4408493;32;20053;-75
2022/04/13 09:42:52;;;;;;;14.90;5.65;;;;;;;;;;4403110;32;20092;-77
2022/04/13 09:45:17;;;;;;;14.48;6.20;;;;;;;;;;4392132;32;20320;-80
2022/04/13 09:47:45;;;;;;;14.75;6.55;;;;;;;;;;4400854;32;20420;-77
2022/04/13 09:50:10;;;;;;;16.65;5.45;;;;;;;;;;4408649;32;20094;-77
2022/04/13 09:52:39;;;;;;;15.43;5.40;;;;;;;;;;4397242;32;20066;-79
2022/04/13 09:55:05;;;;;;;23.45;5.75;;;;;;;;;;4385712;32;20134;-76
2022/04/13 09:57:30;;;;;;;15.57;4.60;;;;;;;;;;4404177;32;20089;-79
2022/04/13 09:59:56;;;;;;;18.12;4.82;;;;;;;;;;4402977;32;20053;-76
2022/04/13 10:02:38;;;;;;;17.27;4.65;;;;;;;;;;4389611;32;20056;-77
2022/04/13 10:05:04;;;;;;;14.40;4.65;;;;;;;;;;4402295;32;20030;-78
2022/04/13 10:07:29;;;;;;;16.25;4.78;;;;;;;;;;4401981;32;20515;-80
2022/04/13 10:09:54;;;;;;;11.50;4.70;;;;;;;;;;4388920;32;20069;-76
2022/04/13 10:12:19;;;;;;;15.95;5.57;;;;;;;;;;4403185;32;20045;-77
2022/04/13 10:14:46;;;;;;;14.77;5.07;;;;;;;;;;4403475;32;20473;-76
2022/04/13 10:17:12;;;;;;;14.65;5.22;;;;;;;;;;4402706;32;20476;-80
2022/04/13 10:19:38;;;;;;;10.80;4.40;;;;;;;;;;4389980;32;20022;-77
2022/04/13 10:22:03;;;;;;;12.27;4.10;;;;;;;;;;4403361;32;20035;-75
2022/04/13 10:24:33;;;;;;;15.55;5.68;;;;;;;;;;4403201;32;20068;-76
2022/04/13 10:26:59;;;;;;;14.18;5.57;;;;;;;;;;4392683;32;20027;-80
2022/04/13 10:29:26;;;;;;;20.70;7.30;;;;;;;;;;4388953;32;20027;-78
2022/04/13 10:32:02;;;;;;;15.27;7.50;;;;;;;;;;4394388;32;20022;-78
2022/04/13 10:34:34;;;;;;;16.90;8.05;;;;;;;;;;4382043;32;20062;-78
2022/04/13 10:37:00;;;;;;;19.35;8.18;;;;;;;;;;4389612;32;20586;-76
2022/04/13 10:39:25;;;;;;;17.70;8.00;;;;;;;;;;4390744;32;20122;-81
2022/04/13 10:41:50;;;;;;;21.30;8.75;;;;;;;;;;4396929;32;20019;-79
2022/04/13 10:44:19;;;;;;;18.37;7.78;;;;;;;;;;4409041;32;20393;-75
2022/04/13 10:46:48;;;;;;;20.50;7.72;;;;;;;;;;4407671;32;20023;-78
2022/04/13 10:49:16;;;;;;;14.93;8.02;;;;;;;;;;4408494;32;20416;-76
2022/04/13 10:51:43;;;;;;;21.50;7.87;;;;;;;;;;4408016;32;20026;-77
2022/04/13 10:54:09;;;;;;;16.58;7.78;;;;;;;;;;4407739;32;20027;-77
2022/04/13 10:56:37;;;;;;;20.70;8.18;;;;;;;;;;4407815;32;20022;-75
2022/04/13 10:59:05;;;;;;;12.80;7.82;;;;;;;;;;4407002;32;20344;-76
2022/04/13 11:01:35;;;;;;;19.20;7.72;;;;;;;;;;4408754;32;20022;-80
2022/04/13 11:04:00;;;;;;;17.73;7.95;;;;;;;;;;4406891;32;20031;-76
2022/04/13 11:06:26;;;;;;;19.02;9.85;;;;;;;;;;4408675;32;20034;-79
2022/04/13 11:08:54;;;;;;;13.73;9.45;;;;;;;;;;4408124;32;20015;-77
2022/04/13 11:11:21;;;;;;;24.30;8.20;;;;;;;;;;4407835;32;20037;-76
2022/04/13 11:13:47;;;;;;;18.15;8.98;;;;;;;;;;4393149;32;20122;-77
2022/04/13 11:16:32;;;;;;;26.02;8.23;;;;;;;;;;4393483;32;20101;-80
2022/04/13 11:19:01;;;;;;;15.63;7.50;;;;;;;;;;4392772;32;20402;-77
2022/04/13 11:21:26;;;;;;;16.40;8.32;;;;;;;;;;4397790;32;20396;-76
2022/04/13 11:23:52;;;;;;;16.37;8.10;;;;;;;;;;4403527;32;20048;-75
2022/04/13 11:26:26;;;;;;;19.40;8.20;;;;;;;;;;4409142;32;20049;-77
2022/04/13 11:29:15;;;;;;;17.35;8.65;;;;;;;;;;4406915;32;20082;-79
2022/04/13 11:31:59;;;;;;;19.40;9.25;;;;;;;;;;4395556;32;20011;-76
2022/04/13 11:34:27;;;;;;;16.98;9.20;;;;;;;;;;4398890;32;20396;-81
2022/04/13 11:36:57;;;;;;;15.10;8.40;;;;;;;;;;4406349;32;20494;-76
2022/04/13 11:39:42;;;;;;;15.80;7.55;;;;;;;;;;4407189;32;20030;-79
2022/04/13 11:42:17;;;;;;;18.12;7.10;;;;;;;;;;4406566;32;20431;-78
2022/04/13 11:44:46;;;;;;;10.60;5.30;;;;;;;;;;4409252;32;20405;-78
2022/04/13 11:47:17;;;;;;;11.38;5.32;;;;;;;;;;4407227;32;20044;-79
2022/04/13 11:49:57;;;;;;;15.63;6.32;;;;;;;;;;4401855;32;20019;-75
2022/04/13 11:52:38;;;;;;;16.23;7.43;;;;;;;;;;4390997;32;20140;-77
2022/04/13 11:55:13;;;;;;;13.48;6.80;;;;;;;;;;4392019;32;20084;-78
2022/04/13 11:57:57;;;;;;;17.83;7.60;;;;;;;;;;4392147;32;20352;-77
2022/04/13 12:00:42;;;;;;;14.38;6.85;;;;;;;;;;4391342;32;20069;-77
2022/04/13 12:03:08;;;;;;;14.95;7.25;;;;;;;;;;4360233;32;20121;-77
2022/04/13 12:05:41;;;;;;;14.57;8.48;;;;;;;;;;4377772;32;20090;-78
2022/04/13 12:08:19;;;;;;;18.50;8.55;;;;;;;;;;4404186;32;20179;-75
2022/04/13 12:10:55;;;;;;;12.57;6.15;;;;;;;;;;4390843;32;20353;-76
2022/04/13 12:13:21;;;;;;;11.30;5.93;;;;;;;;;;4405333;32;20147;-76
2022/04/13 12:15:50;;;;;;;11.75;5.32;;;;;;;;;;4406024;32;20077;-78
2022/04/13 12:18:16;;;;;;;12.02;6.53;;;;;;;;;;4402320;32;20022;-78
2022/04/13 12:20:41;;;;;;;13.57;5.53;;;;;;;;;;4391461;32;20018;-77
2022/04/13 12:23:17;;;;;;;16.33;5.70;;;;;;;;;;4405124;32;20065;-77
2022/04/13 12:25:45;;;;;;;11.25;5.62;;;;;;;;;;4406808;32;20023;-75
2022/04/13 12:28:11;;;;;;;12.90;5.07;;;;;;;;;;4403171;32;20103;-77
2022/04/13 12:30:37;;;;;;;9.25;5.37;;;;;;;;;;4405218;32;20061;-81
2022/04/13 12:33:21;;;;;;;14.98;6.47;;;;;;;;;;4388983;32;20496;-76
2022/04/13 12:35:47;;;;;;;11.90;5.53;;;;;;;;;;4389708;32;20085;-81
2022/04/13 12:38:20;;;;;;;18.02;6.87;;;;;;;;;;4404797;32;20042;-80
2022/04/13 12:40:46;;;;;;;12.30;6.20;;;;;;;;;;4405707;32;20030;-77
2022/04/13 12:43:11;;;;;;;12.70;6.53;;;;;;;;;;4405254;32;20026;-80
2022/04/13 12:45:37;;;;;;;13.98;6.22;;;;;;;;;;4392941;32;20049;-80
2022/04/13 12:48:07;;;;;;;13.07;7.37;;;;;;;;;;4392013;32;20052;-80
2022/04/13 12:50:33;;;;;;;15.00;6.75;;;;;;;;;;4405107;32;20130;-78
2022/04/13 12:52:58;;;;;;;17.27;6.22;;;;;;;;;;4404748;32;20089;-79
2022/04/13 12:55:24;;;;;;;10.52;6.00;;;;;;;;;;4403594;32;20027;-81
2022/04/13 12:57:49;;;;;;;13.27;7.57;;;;;;;;;;4391120;32;20038;-76
2022/04/13 13:00:34;;;;;;;13.55;5.65;;;;;;;;;;4391969;32;20371;-77
2022/04/13 13:02:59;;;;;;;10.95;6.53;;;;;;;;;;4404282;32;20080;-79
2022/04/13 13:05:25;;;;;;;13.05;6.45;;;;;;;;;;4404151;32;20038;-78
2022/04/13 13:07:50;;;;;;;12.98;6.32;;;;;;;;;;4404624;32;20022;-77
2022/04/13 13:10:15;;;;;;;11.67;6.80;;;;;;;;;;4390745;32;20114;-77
2022/04/13 13:12:40;;;;;;;13.38;7.37;;;;;;;;;;4404373;32;20122;-76
2022/04/13 13:15:05;;;;;;;15.37;7.83;;;;;;;;;;4390420;32;20152;-76
2022/04/13 13:17:31;;;;;;;12.95;8.93;;;;;;;;;;4404219;32;20462;-78
2022/04/13 13:20:06;;;;;;;11.20;8.63;;;;;;;;;;4391271;32;20458;-76
2022/04/13 13:22:38;;;;;;;18.20;10.43;;;;;;;;;;4404791;32;20416;-77
2022/04/13 13:25:04;;;;;;;15.48;10.82;;;;;;;;;;4405360;32;20109;-77
2022/04/13 13:27:41;;;;;;;17.20;10.77;;;;;;;;;;4405535;32;20043;-76
2022/04/13 13:30:13;;;;;;;16.25;11.95;;;;;;;;;;4404311;32;20408;-77
2022/04/13 13:32:39;;;;;;;14.70;11.48;;;;;;;;;;4404845;32;20030;-79
2022/04/13 13:35:06;;;;;;;18.58;11.15;;;;;;;;;;4405154;32;20160;-78
2022/04/13 13:37:39;;;;;;;18.90;10.75;;;;;;;;;;4404741;32;20030;-78
2022/04/13 13:40:05;;;;;;;22.95;8.68;;;;;;;;;;4390640;32;20129;-81
2022/04/13 13:42:40;;;;;;;15.90;6.72;;;;;;;;;;4405672;32;20022;-79
2022/04/13 13:45:18;;;;;;;12.57;6.53;;;;;;;;;;4404904;32;20056;-77
2022/04/13 13:47:44;;;;;;;15.18;6.30;;;;;;;;;;4402235;32;20071;-78
2022/04/13 13:50:09;;;;;;;11.43;6.72;;;;;;;;;;4405496;32;20054;-75
2022/04/13 13:52:35;;;;;;;15.02;8.05;;;;;;;;;;4405139;32;20026;-77
2022/04/13 13:55:00;;;;;;;11.98;8.20;;;;;;;;;;4391028;32;20018;-77
2022/04/13 13:57:25;;;;;;;11.10;8.27;;;;;;;;;;4404841;32;20458;-80
2022/04/13 13:59:51;;;;;;;11.50;7.75;;;;;;;;;;4405458;32;20053;-77
2022/04/13 14:02:16;;;;;;;12.50;7.60;;;;;;;;;;4391327;32;20070;-79
2022/04/13 14:04:41;;;;;;;12.37;7.85;;;;;;;;;;4389928;32;20171;-76
2022/04/13 14:07:07;;;;;;;12.48;6.60;;;;;;;;;;4390697;32;20069;-81
2022/04/13 14:09:32;;;;;;;13.57;6.53;;;;;;;;;;4405215;32;20389;-81
2022/04/13 14:11:58;;;;;;;13.05;6.60;;;;;;;;;;4405376;32;20042;-78
2022/04/13 14:14:23;;;;;;;11.12;6.60;;;;;;;;;;4404719;32;20038;-77
2022/04/13 14:16:49;;;;;;;13.05;6.10;;;;;;;;;;4405255;32;20068;-79
2022/04/13 14:19:16;;;;;;;12.85;6.25;;;;;;;;;;4408613;32;20034;-84
2022/04/13 14:21:41;;;;;;;10.10;5.50;;;;;;;;;;4409930;32;20061;-79
2022/04/13 14:24:07;;;;;;;13.45;5.93;;;;;;;;;;4410399;32;20422;-79
2022/04/13 14:26:32;;;;;;;10.93;6.30;;;;;;;;;;4411495;32;20023;-82
2022/04/13 14:28:57;;;;;;;9.70;5.30;;;;;;;;;;4408728;32;20049;-79
2022/04/13 14:31:22;;;;;;;9.27;4.80;;;;;;;;;;4407924;32;20084;-76
2022/04/13 14:33:47;;;;;;;12.05;5.40;;;;;;;;;;4408368;32;20110;-77
2022/04/13 14:36:13;;;;;;;8.93;4.90;;;;;;;;;;4395518;32;20352;-80
2022/04/13 14:38:38;;;;;;;14.27;5.68;;;;;;;;;;4407778;32;20217;-79
2022/04/13 14:41:03;;;;;;;14.00;5.65;;;;;;;;;;4407679;32;20053;-78
2022/04/13 14:43:28;;;;;;;11.12;3.85;;;;;;;;;;4407817;32;20350;-76
2022/04/13 14:45:54;;;;;;;17.67;5.47;;;;;;;;;;4393699;32;20437;-80